sensor_id;sensor_type;location;lat;lon;timestamp;temperature;humidity
30520;DHT22;17300;50.374;8.006;2023-03-02T00:02:08;5.50;32.90
30520;DHT22;17300;50.374;8.006;2023-03-02T00:04:40;5.50;33.20
30520;DHT22;17300;50.374;8.006;2023-03-02T00:07:11;5.40;33.00
30520;DHT22;17300;50.374;8.006;2023-03-02T00:09:39;5.40;33.10
30520;DHT22;17300;50.374;8.006;2023-03-02T00:12:07;5.40;33.20
30520;DHT22;17300;50.374;8.006;2023-03-02T00:14:34;5.40;33.20
30520;DHT22;17300;50.374;8.006;2023-03-02T00:17:04;5.30;33.20
30520;DHT22;17300;50.374;8.006;2023-03-02T00:19:32;5.30;33.40
30520;DHT22;17300;50.374;8.006;2023-03-02T00:21:58;5.30;33.40
30520;DHT22;17300;50.374;8.006;2023-03-02T00:24:25;5.30;33.50
30520;DHT22;17300;50.374;8.006;2023-03-02T00:26:52;5.20;33.50
30520;DHT22;17300;50.374;8.006;2023-03-02T00:29:18;5.20;33.60
30520;DHT22;17300;50.374;8.006;2023-03-02T00:31:45;5.20;33.70
30520;DHT22;17300;50.374;8.006;2023-03-02T00:34:13;5.20;33.70
30520;DHT22;17300;50.374;8.006;2023-03-02T00:36:41;5.20;33.80
30520;DHT22;17300;50.374;8.006;2023-03-02T00:39:08;5.10;33.70
30520;DHT22;17300;50.374;8.006;2023-03-02T00:41:35;5.10;33.80
30520;DHT22;17300;50.374;8.006;2023-03-02T00:44:01;5.10;33.80
30520;DHT22;17300;50.374;8.006;2023-03-02T00:46:28;5.10;33.90
30520;DHT22;17300;50.374;8.006;2023-03-02T00:48:54;5.00;33.90
30520;DHT22;17300;50.374;8.006;2023-03-02T00:51:22;5.10;34.00
30520;DHT22;17300;50.374;8.006;2023-03-02T00:53:49;5.00;34.10
30520;DHT22;17300;50.374;8.006;2023-03-02T00:56:16;5.00;34.10
30520;DHT22;17300;50.374;8.006;2023-03-02T00:58:42;5.00;34.10
30520;DHT22;17300;50.374;8.006;2023-03-02T01:01:10;5.00;34.30
30520;DHT22;17300;50.374;8.006;2023-03-02T01:03:38;5.00;34.30
30520;DHT22;17300;50.374;8.006;2023-03-02T01:06:05;4.90;34.20
30520;DHT22;17300;50.374;8.006;2023-03-02T01:08:40;4.90;34.30
30520;DHT22;17300;50.374;8.006;2023-03-02T01:11:11;4.90;34.40
30520;DHT22;17300;50.374;8.006;2023-03-02T01:13:38;4.90;34.70
30520;DHT22;17300;50.374;8.006;2023-03-02T01:16:05;4.90;34.40
30520;DHT22;17300;50.374;8.006;2023-03-02T01:18:33;4.90;34.60
30520;DHT22;17300;50.374;8.006;2023-03-02T01:21:05;4.80;34.70
30520;DHT22;17300;50.374;8.006;2023-03-02T01:23:32;4.80;34.80
30520;DHT22;17300;50.374;8.006;2023-03-02T01:26:00;4.80;34.80
30520;DHT22;17300;50.374;8.006;2023-03-02T01:28:27;4.80;35.00
30520;DHT22;17300;50.374;8.006;2023-03-02T01:30:54;4.80;35.00
30520;DHT22;17300;50.374;8.006;2023-03-02T01:33:20;4.80;35.00
30520;DHT22;17300;50.374;8.006;2023-03-02T01:35:47;4.70;35.00
30520;DHT22;17300;50.374;8.006;2023-03-02T01:38:14;4.70;35.10
30520;DHT22;17300;50.374;8.006;2023-03-02T01:44:04;4.70;35.70
30520;DHT22;17300;50.374;8.006;2023-03-02T01:46:31;4.70;35.10
30520;DHT22;17300;50.374;8.006;2023-03-02T01:49:00;4.60;35.20
30520;DHT22;17300;50.374;8.006;2023-03-02T01:51:29;4.60;35.40
30520;DHT22;17300;50.374;8.006;2023-03-02T01:53:59;4.60;35.60
30520;DHT22;17300;50.374;8.006;2023-03-02T01:56:30;4.50;35.60
30520;DHT22;17300;50.374;8.006;2023-03-02T01:59:02;4.50;35.60
30520;DHT22;17300;50.374;8.006;2023-03-02T02:01:34;4.50;35.60
30520;DHT22;17300;50.374;8.006;2023-03-02T02:04:01;4.50;35.60
30520;DHT22;17300;50.374;8.006;2023-03-02T02:06:32;4.50;35.60
30520;DHT22;17300;50.374;8.006;2023-03-02T02:09:01;4.40;35.50
30520;DHT22;17300;50.374;8.006;2023-03-02T02:11:29;4.40;35.50
30520;DHT22;17300;50.374;8.006;2023-03-02T02:13:58;4.40;35.50
30520;DHT22;17300;50.374;8.006;2023-03-02T02:16:25;4.40;35.50
30520;DHT22;17300;50.374;8.006;2023-03-02T02:18:54;4.40;35.50
30520;DHT22;17300;50.374;8.006;2023-03-02T02:21:21;4.40;35.70
30520;DHT22;17300;50.374;8.006;2023-03-02T02:23:58;4.30;35.70
30520;DHT22;17300;50.374;8.006;2023-03-02T02:26:32;4.30;36.20
30520;DHT22;17300;50.374;8.006;2023-03-02T02:29:02;4.30;36.00
30520;DHT22;17300;50.374;8.006;2023-03-02T02:31:35;4.30;36.10
30520;DHT22;17300;50.374;8.006;2023-03-02T02:34:08;4.30;36.10
30520;DHT22;17300;50.374;8.006;2023-03-02T02:36:39;4.30;36.20
30520;DHT22;17300;50.374;8.006;2023-03-02T02:39:13;4.20;36.10
30520;DHT22;17300;50.374;8.006;2023-03-02T02:41:45;4.20;36.20
30520;DHT22;17300;50.374;8.006;2023-03-02T02:44:14;4.20;36.30
30520;DHT22;17300;50.374;8.006;2023-03-02T02:46:41;4.20;36.20
30520;DHT22;17300;50.374;8.006;2023-03-02T02:49:17;4.20;36.20
30520;DHT22;17300;50.374;8.006;2023-03-02T02:51:46;4.10;36.50
30520;DHT22;17300;50.374;8.006;2023-03-02T02:54:16;4.10;36.20
30520;DHT22;17300;50.374;8.006;2023-03-02T02:56:46;4.10;36.50
30520;DHT22;17300;50.374;8.006;2023-03-02T02:59:16;4.10;36.50
30520;DHT22;17300;50.374;8.006;2023-03-02T03:01:46;4.10;36.60
30520;DHT22;17300;50.374;8.006;2023-03-02T03:04:17;4.10;36.60
30520;DHT22;17300;50.374;8.006;2023-03-02T03:06:49;4.00;36.60
30520;DHT22;17300;50.374;8.006;2023-03-02T03:09:17;4.00;36.80
30520;DHT22;17300;50.374;8.006;2023-03-02T03:11:47;4.00;36.60
30520;DHT22;17300;50.374;8.006;2023-03-02T03:14:17;4.00;36.80
30520;DHT22;17300;50.374;8.006;2023-03-02T03:16:45;4.00;36.80
30520;DHT22;17300;50.374;8.006;2023-03-02T03:19:16;4.00;37.40
30520;DHT22;17300;50.374;8.006;2023-03-02T03:21:44;4.00;36.90
30520;DHT22;17300;50.374;8.006;2023-03-02T03:24:11;3.90;36.60
30520;DHT22;17300;50.374;8.006;2023-03-02T03:26:38;3.90;36.60
30520;DHT22;17300;50.374;8.006;2023-03-02T03:29:06;3.90;36.60
30520;DHT22;17300;50.374;8.006;2023-03-02T03:31:33;3.90;36.70
30520;DHT22;17300;50.374;8.006;2023-03-02T03:34:01;3.90;36.70
30520;DHT22;17300;50.374;8.006;2023-03-02T03:36:29;3.80;36.70
30520;DHT22;17300;50.374;8.006;2023-03-02T03:38:57;3.80;36.80
30520;DHT22;17300;50.374;8.006;2023-03-02T03:41:24;3.80;36.80
30520;DHT22;17300;50.374;8.006;2023-03-02T03:43:51;3.80;36.90
30520;DHT22;17300;50.374;8.006;2023-03-02T03:46:19;3.80;36.90
30520;DHT22;17300;50.374;8.006;2023-03-02T03:48:46;3.70;36.90
30520;DHT22;17300;50.374;8.006;2023-03-02T03:51:13;3.70;36.90
30520;DHT22;17300;50.374;8.006;2023-03-02T03:53:40;3.70;37.00
30520;DHT22;17300;50.374;8.006;2023-03-02T03:56:07;3.70;37.00
30520;DHT22;17300;50.374;8.006;2023-03-02T03:58:33;3.70;37.00
30520;DHT22;17300;50.374;8.006;2023-03-02T04:01:00;3.70;37.10
30520;DHT22;17300;50.374;8.006;2023-03-02T04:03:29;3.60;37.10
30520;DHT22;17300;50.374;8.006;2023-03-02T04:05:56;3.60;37.20
30520;DHT22;17300;50.374;8.006;2023-03-02T04:08:23;3.60;37.10
30520;DHT22;17300;50.374;8.006;2023-03-02T04:10:49;3.60;37.20
30520;DHT22;17300;50.374;8.006;2023-03-02T04:13:16;3.60;37.20
30520;DHT22;17300;50.374;8.006;2023-03-02T04:15:43;3.50;37.20
30520;DHT22;17300;50.374;8.006;2023-03-02T04:18:09;3.50;37.20
30520;DHT22;17300;50.374;8.006;2023-03-02T04:20:37;3.50;37.90
30520;DHT22;17300;50.374;8.006;2023-03-02T04:23:04;3.50;37.40
30520;DHT22;17300;50.374;8.006;2023-03-02T04:25:31;3.50;37.40
30520;DHT22;17300;50.374;8.006;2023-03-02T04:27:58;3.50;37.50
30520;DHT22;17300;50.374;8.006;2023-03-02T04:30:25;3.50;37.50
30520;DHT22;17300;50.374;8.006;2023-03-02T04:32:52;3.50;37.60
30520;DHT22;17300;50.374;8.006;2023-03-02T04:35:22;3.40;37.60
30520;DHT22;17300;50.374;8.006;2023-03-02T04:37:51;3.40;37.60
30520;DHT22;17300;50.374;8.006;2023-03-02T04:40:18;3.40;37.70
30520;DHT22;17300;50.374;8.006;2023-03-02T04:42:46;3.40;38.30
30520;DHT22;17300;50.374;8.006;2023-03-02T04:45:13;3.40;37.70
30520;DHT22;17300;50.374;8.006;2023-03-02T04:47:40;3.40;37.70
30520;DHT22;17300;50.374;8.006;2023-03-02T04:50:08;3.30;37.70
30520;DHT22;17300;50.374;8.006;2023-03-02T04:52:35;3.30;37.70
30520;DHT22;17300;50.374;8.006;2023-03-02T04:55:05;3.30;37.80
30520;DHT22;17300;50.374;8.006;2023-03-02T04:57:32;3.30;37.90
30520;DHT22;17300;50.374;8.006;2023-03-02T04:59:59;3.30;37.80
30520;DHT22;17300;50.374;8.006;2023-03-02T05:02:34;3.30;37.80
30520;DHT22;17300;50.374;8.006;2023-03-02T05:05:01;3.20;37.80
30520;DHT22;17300;50.374;8.006;2023-03-02T05:07:27;3.20;37.80
30520;DHT22;17300;50.374;8.006;2023-03-02T05:09:54;3.20;37.90
30520;DHT22;17300;50.374;8.006;2023-03-02T05:12:22;3.20;37.90
30520;DHT22;17300;50.374;8.006;2023-03-02T05:14:48;3.20;38.00
30520;DHT22;17300;50.374;8.006;2023-03-02T05:17:15;3.20;38.00
30520;DHT22;17300;50.374;8.006;2023-03-02T05:19:42;3.20;38.00
30520;DHT22;17300;50.374;8.006;2023-03-02T05:22:08;3.10;38.00
30520;DHT22;17300;50.374;8.006;2023-03-02T05:24:35;3.10;38.00
30520;DHT22;17300;50.374;8.006;2023-03-02T05:27:02;3.10;38.10
30520;DHT22;17300;50.374;8.006;2023-03-02T05:29:30;3.10;38.10
30520;DHT22;17300;50.374;8.006;2023-03-02T05:31:57;3.10;38.20
30520;DHT22;17300;50.374;8.006;2023-03-02T05:34:23;3.10;38.20
30520;DHT22;17300;50.374;8.006;2023-03-02T05:36:50;3.00;38.20
30520;DHT22;17300;50.374;8.006;2023-03-02T05:39:17;3.10;38.30
30520;DHT22;17300;50.374;8.006;2023-03-02T05:41:43;3.00;38.20
30520;DHT22;17300;50.374;8.006;2023-03-02T05:44:10;3.00;38.30
30520;DHT22;17300;50.374;8.006;2023-03-02T05:46:38;3.00;38.30
30520;DHT22;17300;50.374;8.006;2023-03-02T05:49:05;3.00;38.40
30520;DHT22;17300;50.374;8.006;2023-03-02T05:51:32;3.00;38.40
30520;DHT22;17300;50.374;8.006;2023-03-02T05:53:59;3.00;38.40
30520;DHT22;17300;50.374;8.006;2023-03-02T05:56:25;3.00;38.50
30520;DHT22;17300;50.374;8.006;2023-03-02T05:58:52;2.90;38.40
30520;DHT22;17300;50.374;8.006;2023-03-02T06:01:21;2.90;38.50
30520;DHT22;17300;50.374;8.006;2023-03-02T06:03:49;2.90;38.50
30520;DHT22;17300;50.374;8.006;2023-03-02T06:06:16;2.90;38.50
30520;DHT22;17300;50.374;8.006;2023-03-02T06:08:44;2.90;38.50
30520;DHT22;17300;50.374;8.006;2023-03-02T06:11:16;2.80;38.50
30520;DHT22;17300;50.374;8.006;2023-03-02T06:13:43;2.90;38.70
30520;DHT22;17300;50.374;8.006;2023-03-02T06:16:10;2.80;38.70
30520;DHT22;17300;50.374;8.006;2023-03-02T06:18:37;2.80;38.70
30520;DHT22;17300;50.374;8.006;2023-03-02T06:21:05;2.80;38.80
30520;DHT22;17300;50.374;8.006;2023-03-02T06:23:32;2.80;38.90
30520;DHT22;17300;50.374;8.006;2023-03-02T06:25:59;2.80;38.90
30520;DHT22;17300;50.374;8.006;2023-03-02T06:28:26;2.80;39.00
30520;DHT22;17300;50.374;8.006;2023-03-02T06:30:52;2.80;39.00
30520;DHT22;17300;50.374;8.006;2023-03-02T06:33:19;2.80;39.00
30520;DHT22;17300;50.374;8.006;2023-03-02T06:35:47;2.90;39.10
30520;DHT22;17300;50.374;8.006;2023-03-02T06:38:15;2.90;39.20
30520;DHT22;17300;50.374;8.006;2023-03-02T06:40:42;2.90;39.30
30520;DHT22;17300;50.374;8.006;2023-03-02T06:43:09;2.90;39.20
30520;DHT22;17300;50.374;8.006;2023-03-02T06:45:36;2.90;39.30
30520;DHT22;17300;50.374;8.006;2023-03-02T06:48:03;3.00;39.40
30520;DHT22;17300;50.374;8.006;2023-03-02T06:50:30;3.00;39.50
30520;DHT22;17300;50.374;8.006;2023-03-02T06:52:57;3.00;40.10
30520;DHT22;17300;50.374;8.006;2023-03-02T06:55:25;3.10;39.60
30520;DHT22;17300;50.374;8.006;2023-03-02T06:57:52;3.10;39.70
30520;DHT22;17300;50.374;8.006;2023-03-02T07:00:20;3.20;39.70
30520;DHT22;17300;50.374;8.006;2023-03-02T07:02:54;3.20;39.70
30520;DHT22;17300;50.374;8.006;2023-03-02T07:05:21;3.30;39.90
30520;DHT22;17300;50.374;8.006;2023-03-02T07:07:49;3.40;39.90
30520;DHT22;17300;50.374;8.006;2023-03-02T07:10:16;3.30;39.80
30520;DHT22;17300;50.374;8.006;2023-03-02T07:12:44;3.40;39.80
30520;DHT22;17300;50.374;8.006;2023-03-02T07:15:11;3.50;40.00
30520;DHT22;17300;50.374;8.006;2023-03-02T07:17:39;3.50;40.00
30520;DHT22;17300;50.374;8.006;2023-03-02T07:20:08;3.60;40.20
30520;DHT22;17300;50.374;8.006;2023-03-02T07:22:35;3.70;40.20
30520;DHT22;17300;50.374;8.006;2023-03-02T07:25:02;3.80;40.30
30520;DHT22;17300;50.374;8.006;2023-03-02T07:27:29;3.80;40.30
30520;DHT22;17300;50.374;8.006;2023-03-02T07:29:57;3.90;40.50
30520;DHT22;17300;50.374;8.006;2023-03-02T07:32:23;4.00;40.60
30520;DHT22;17300;50.374;8.006;2023-03-02T07:34:50;4.10;40.70
30520;DHT22;17300;50.374;8.006;2023-03-02T07:37:17;4.20;40.70
30520;DHT22;17300;50.374;8.006;2023-03-02T07:39:43;4.30;40.80
30520;DHT22;17300;50.374;8.006;2023-03-02T07:42:11;4.40;40.80
30520;DHT22;17300;50.374;8.006;2023-03-02T07:44:38;4.50;41.20
30520;DHT22;17300;50.374;8.006;2023-03-02T07:47:06;4.80;42.50
30520;DHT22;17300;50.374;8.006;2023-03-02T07:49:33;5.20;44.50
30520;DHT22;17300;50.374;8.006;2023-03-02T07:52:00;5.80;46.40
30520;DHT22;17300;50.374;8.006;2023-03-02T07:54:27;6.60;48.00
30520;DHT22;17300;50.374;8.006;2023-03-02T07:56:54;7.60;49.10
30520;DHT22;17300;50.374;8.006;2023-03-02T07:59:27;8.70;49.60
30520;DHT22;17300;50.374;8.006;2023-03-02T08:01:54;9.90;49.50
30520;DHT22;17300;50.374;8.006;2023-03-02T08:04:22;11.00;48.60
30520;DHT22;17300;50.374;8.006;2023-03-02T08:06:50;12.20;48.10
30520;DHT22;17300;50.374;8.006;2023-03-02T08:09:17;13.40;47.80
30520;DHT22;17300;50.374;8.006;2023-03-02T08:11:43;14.50;47.20
30520;DHT22;17300;50.374;8.006;2023-03-02T08:14:12;15.60;46.60
30520;DHT22;17300;50.374;8.006;2023-03-02T08:16:39;16.60;45.30
30520;DHT22;17300;50.374;8.006;2023-03-02T08:19:06;17.60;44.00
30520;DHT22;17300;50.374;8.006;2023-03-02T08:21:39;18.50;42.80
30520;DHT22;17300;50.374;8.006;2023-03-02T08:24:09;19.40;40.80
30520;DHT22;17300;50.374;8.006;2023-03-02T08:26:36;20.20;40.50
30520;DHT22;17300;50.374;8.006;2023-03-02T08:29:03;21.00;39.80
30520;DHT22;17300;50.374;8.006;2023-03-02T08:31:30;21.60;38.40
30520;DHT22;17300;50.374;8.006;2023-03-02T08:33:57;22.10;36.80
30520;DHT22;17300;50.374;8.006;2023-03-02T08:36:24;22.60;35.40
30520;DHT22;17300;50.374;8.006;2023-03-02T08:38:53;22.80;34.30
30520;DHT22;17300;50.374;8.006;2023-03-02T08:41:21;23.10;33.60
30520;DHT22;17300;50.374;8.006;2023-03-02T08:43:49;23.30;33.90
30520;DHT22;17300;50.374;8.006;2023-03-02T08:46:19;23.50;32.40
30520;DHT22;17300;50.374;8.006;2023-03-02T08:48:46;23.60;31.90
30520;DHT22;17300;50.374;8.006;2023-03-02T08:51:15;23.70;31.40
30520;DHT22;17300;50.374;8.006;2023-03-02T08:53:44;23.90;31.10
30520;DHT22;17300;50.374;8.006;2023-03-02T08:56:17;24.10;30.90
30520;DHT22;17300;50.374;8.006;2023-03-02T08:58:44;24.30;30.00
30520;DHT22;17300;50.374;8.006;2023-03-02T09:01:16;24.50;30.40
30520;DHT22;17300;50.374;8.006;2023-03-02T09:03:46;24.70;29.50
30520;DHT22;17300;50.374;8.006;2023-03-02T09:06:12;24.80;29.40
30520;DHT22;17300;50.374;8.006;2023-03-02T09:08:39;24.90;29.30
30520;DHT22;17300;50.374;8.006;2023-03-02T09:11:06;25.00;29.20
30520;DHT22;17300;50.374;8.006;2023-03-02T09:13:35;25.10;28.90
30520;DHT22;17300;50.374;8.006;2023-03-02T09:16:02;25.30;28.70
30520;DHT22;17300;50.374;8.006;2023-03-02T09:18:29;25.50;28.80
30520;DHT22;17300;50.374;8.006;2023-03-02T09:20:56;25.70;28.90
30520;DHT22;17300;50.374;8.006;2023-03-02T09:23:24;26.00;28.60
30520;DHT22;17300;50.374;8.006;2023-03-02T09:25:52;26.20;28.30
30520;DHT22;17300;50.374;8.006;2023-03-02T09:28:19;26.50;28.20
30520;DHT22;17300;50.374;8.006;2023-03-02T09:30:49;26.80;27.90
30520;DHT22;17300;50.374;8.006;2023-03-02T09:33:20;27.20;27.30
30520;DHT22;17300;50.374;8.006;2023-03-02T09:35:47;27.40;27.20
30520;DHT22;17300;50.374;8.006;2023-03-02T09:38:17;27.70;27.00
30520;DHT22;17300;50.374;8.006;2023-03-02T09:41:00;28.00;26.40
30520;DHT22;17300;50.374;8.006;2023-03-02T09:43:40;28.10;25.40
30520;DHT22;17300;50.374;8.006;2023-03-02T09:46:16;28.30;25.30
30520;DHT22;17300;50.374;8.006;2023-03-02T09:48:57;28.40;25.20
30520;DHT22;17300;50.374;8.006;2023-03-02T09:51:30;28.40;24.20
30520;DHT22;17300;50.374;8.006;2023-03-02T09:54:03;28.30;23.90
30520;DHT22;17300;50.374;8.006;2023-03-02T09:56:41;28.10;23.70
30520;DHT22;17300;50.374;8.006;2023-03-02T09:59:17;27.90;24.20
30520;DHT22;17300;50.374;8.006;2023-03-02T10:01:50;27.90;24.20
30520;DHT22;17300;50.374;8.006;2023-03-02T10:04:23;28.00;24.50
30520;DHT22;17300;50.374;8.006;2023-03-02T10:06:54;28.10;24.30
30520;DHT22;17300;50.374;8.006;2023-03-02T10:09:21;28.20;24.10
30520;DHT22;17300;50.374;8.006;2023-03-02T10:12:07;28.40;24.40
30520;DHT22;17300;50.374;8.006;2023-03-02T10:14:43;28.60;23.80
30520;DHT22;17300;50.374;8.006;2023-03-02T10:17:40;28.90;24.60
30520;DHT22;17300;50.374;8.006;2023-03-02T10:20:18;29.20;24.00
30520;DHT22;17300;50.374;8.006;2023-03-02T10:22:52;29.60;24.60
30520;DHT22;17300;50.374;8.006;2023-03-02T10:25:29;30.00;24.10
30520;DHT22;17300;50.374;8.006;2023-03-02T10:28:16;30.30;23.70
30520;DHT22;17300;50.374;8.006;2023-03-02T10:30:45;30.60;23.10
30520;DHT22;17300;50.374;8.006;2023-03-02T10:33:17;30.80;23.20
30520;DHT22;17300;50.374;8.006;2023-03-02T10:35:45;30.90;23.10
30520;DHT22;17300;50.374;8.006;2023-03-02T10:38:15;31.10;23.10
30520;DHT22;17300;50.374;8.006;2023-03-02T10:40:45;31.20;22.80
30520;DHT22;17300;50.374;8.006;2023-03-02T10:43:15;31.20;22.10
30520;DHT22;17300;50.374;8.006;2023-03-02T10:45:44;31.20;21.70
30520;DHT22;17300;50.374;8.006;2023-03-02T10:48:30;31.00;21.60
30520;DHT22;17300;50.374;8.006;2023-03-02T10:50:57;30.90;21.30
30520;DHT22;17300;50.374;8.006;2023-03-02T10:53:24;30.70;21.80
30520;DHT22;17300;50.374;8.006;2023-03-02T10:55:52;30.60;21.60
30520;DHT22;17300;50.374;8.006;2023-03-02T10:58:31;30.30;21.40
30520;DHT22;17300;50.374;8.006;2023-03-02T11:01:05;30.10;21.30
30520;DHT22;17300;50.374;8.006;2023-03-02T11:03:38;29.90;21.50
30520;DHT22;17300;50.374;8.006;2023-03-02T11:06:19;29.70;21.50
30520;DHT22;17300;50.374;8.006;2023-03-02T11:08:57;29.50;21.40
30520;DHT22;17300;50.374;8.006;2023-03-02T11:11:24;29.20;21.20
30520;DHT22;17300;50.374;8.006;2023-03-02T11:13:51;29.00;21.40
30520;DHT22;17300;50.374;8.006;2023-03-02T11:16:26;28.80;21.70
30520;DHT22;17300;50.374;8.006;2023-03-02T11:19:00;28.50;21.30
30520;DHT22;17300;50.374;8.006;2023-03-02T11:21:32;28.30;22.00
30520;DHT22;17300;50.374;8.006;2023-03-02T11:24:05;28.20;21.80
30520;DHT22;17300;50.374;8.006;2023-03-02T11:26:46;28.10;21.60
30520;DHT22;17300;50.374;8.006;2023-03-02T11:29:23;27.90;21.20
30520;DHT22;17300;50.374;8.006;2023-03-02T11:31:56;27.70;20.90
30520;DHT22;17300;50.374;8.006;2023-03-02T11:34:29;27.40;20.80
30520;DHT22;17300;50.374;8.006;2023-03-02T11:37:04;27.10;21.00
30520;DHT22;17300;50.374;8.006;2023-03-02T11:39:46;26.80;21.10
30520;DHT22;17300;50.374;8.006;2023-03-02T11:42:19;26.50;21.00
30520;DHT22;17300;50.374;8.006;2023-03-02T11:44:47;26.20;21.30
30520;DHT22;17300;50.374;8.006;2023-03-02T11:47:14;25.90;21.20
30520;DHT22;17300;50.374;8.006;2023-03-02T11:49:46;25.70;21.20
30520;DHT22;17300;50.374;8.006;2023-03-02T11:52:18;25.40;21.40
30520;DHT22;17300;50.374;8.006;2023-03-02T11:54:49;25.10;21.50
30520;DHT22;17300;50.374;8.006;2023-03-02T11:57:22;24.90;21.80
30520;DHT22;17300;50.374;8.006;2023-03-02T11:59:51;24.70;22.00
30520;DHT22;17300;50.374;8.006;2023-03-02T12:02:19;24.50;22.50
30520;DHT22;17300;50.374;8.006;2023-03-02T12:04:48;24.40;22.00
30520;DHT22;17300;50.374;8.006;2023-03-02T12:07:19;24.20;22.20
30520;DHT22;17300;50.374;8.006;2023-03-02T12:09:56;24.10;22.30
30520;DHT22;17300;50.374;8.006;2023-03-02T12:12:45;24.00;22.20
30520;DHT22;17300;50.374;8.006;2023-03-02T12:15:28;23.80;22.10
30520;DHT22;17300;50.374;8.006;2023-03-02T12:17:57;23.60;22.00
30520;DHT22;17300;50.374;8.006;2023-03-02T12:20:27;23.50;22.10
30520;DHT22;17300;50.374;8.006;2023-03-02T12:23:06;23.30;22.10
30520;DHT22;17300;50.374;8.006;2023-03-02T12:25:40;23.20;22.30
30520;DHT22;17300;50.374;8.006;2023-03-02T12:28:30;23.00;22.60
30520;DHT22;17300;50.374;8.006;2023-03-02T12:31:06;22.90;23.10
30520;DHT22;17300;50.374;8.006;2023-03-02T12:33:40;22.80;22.90
30520;DHT22;17300;50.374;8.006;2023-03-02T12:36:14;22.70;23.30
30520;DHT22;17300;50.374;8.006;2023-03-02T12:38:45;22.70;23.10
30520;DHT22;17300;50.374;8.006;2023-03-02T12:41:32;22.60;23.20
30520;DHT22;17300;50.374;8.006;2023-03-02T12:44:23;22.50;23.30
30520;DHT22;17300;50.374;8.006;2023-03-02T12:46:53;22.40;23.30
30520;DHT22;17300;50.374;8.006;2023-03-02T12:49:33;22.40;23.30
30520;DHT22;17300;50.374;8.006;2023-03-02T12:52:19;22.30;23.20
30520;DHT22;17300;50.374;8.006;2023-03-02T12:54:58;22.10;23.20
30520;DHT22;17300;50.374;8.006;2023-03-02T12:57:25;21.90;23.30
30520;DHT22;17300;50.374;8.006;2023-03-02T12:59:53;21.90;23.30
30520;DHT22;17300;50.374;8.006;2023-03-02T13:02:22;21.70;23.40
30520;DHT22;17300;50.374;8.006;2023-03-02T13:04:53;21.60;23.70
30520;DHT22;17300;50.374;8.006;2023-03-02T13:07:25;21.50;23.90
30520;DHT22;17300;50.374;8.006;2023-03-02T13:09:53;21.40;23.60
30520;DHT22;17300;50.374;8.006;2023-03-02T13:12:20;21.40;23.60
30520;DHT22;17300;50.374;8.006;2023-03-02T13:14:51;21.30;23.50
30520;DHT22;17300;50.374;8.006;2023-03-02T13:17:22;21.20;23.60
30520;DHT22;17300;50.374;8.006;2023-03-02T13:19:50;21.10;23.80
30520;DHT22;17300;50.374;8.006;2023-03-02T13:22:19;20.90;23.70
30520;DHT22;17300;50.374;8.006;2023-03-02T13:24:53;20.80;23.80
30520;DHT22;17300;50.374;8.006;2023-03-02T13:27:22;20.70;23.70
30520;DHT22;17300;50.374;8.006;2023-03-02T13:29:49;20.60;23.70
30520;DHT22;17300;50.374;8.006;2023-03-02T13:32:18;20.50;23.80
30520;DHT22;17300;50.374;8.006;2023-03-02T13:34:48;20.30;24.00
30520;DHT22;17300;50.374;8.006;2023-03-02T13:37:20;20.20;24.20
30520;DHT22;17300;50.374;8.006;2023-03-02T13:39:55;20.10;24.50
30520;DHT22;17300;50.374;8.006;2023-03-02T13:42:27;20.10;24.60
30520;DHT22;17300;50.374;8.006;2023-03-02T13:44:54;20.00;24.50
30520;DHT22;17300;50.374;8.006;2023-03-02T13:47:22;19.90;24.50
30520;DHT22;17300;50.374;8.006;2023-03-02T13:49:49;19.80;24.80
30520;DHT22;17300;50.374;8.006;2023-03-02T13:52:21;19.80;24.90
30520;DHT22;17300;50.374;8.006;2023-03-02T13:54:48;19.80;24.80
30520;DHT22;17300;50.374;8.006;2023-03-02T13:57:27;19.80;24.70
30520;DHT22;17300;50.374;8.006;2023-03-02T13:59:54;19.70;24.50
30520;DHT22;17300;50.374;8.006;2023-03-02T14:02:23;19.70;24.30
30520;DHT22;17300;50.374;8.006;2023-03-02T14:04:50;19.60;24.30
30520;DHT22;17300;50.374;8.006;2023-03-02T14:07:18;19.50;24.40
30520;DHT22;17300;50.374;8.006;2023-03-02T14:09:45;19.40;24.40
30520;DHT22;17300;50.374;8.006;2023-03-02T14:12:21;19.30;24.40
30520;DHT22;17300;50.374;8.006;2023-03-02T14:14:50;19.20;24.30
30520;DHT22;17300;50.374;8.006;2023-03-02T14:17:21;19.10;24.30
30520;DHT22;17300;50.374;8.006;2023-03-02T14:19:48;19.00;24.30
30520;DHT22;17300;50.374;8.006;2023-03-02T14:22:17;19.00;24.50
30520;DHT22;17300;50.374;8.006;2023-03-02T14:24:44;18.90;24.30
30520;DHT22;17300;50.374;8.006;2023-03-02T14:27:12;18.90;24.40
30520;DHT22;17300;50.374;8.006;2023-03-02T14:29:40;18.80;24.40
30520;DHT22;17300;50.374;8.006;2023-03-02T14:32:10;18.70;24.40
30520;DHT22;17300;50.374;8.006;2023-03-02T14:34:37;18.60;24.30
30520;DHT22;17300;50.374;8.006;2023-03-02T14:37:06;18.60;24.40
30520;DHT22;17300;50.374;8.006;2023-03-02T14:39:35;18.50;24.30
30520;DHT22;17300;50.374;8.006;2023-03-02T14:42:03;18.50;24.40
30520;DHT22;17300;50.374;8.006;2023-03-02T14:44:30;18.40;24.40
30520;DHT22;17300;50.374;8.006;2023-03-02T14:46:58;18.40;24.80
30520;DHT22;17300;50.374;8.006;2023-03-02T14:49:24;18.30;24.90
30520;DHT22;17300;50.374;8.006;2023-03-02T14:51:58;18.30;25.00
30520;DHT22;17300;50.374;8.006;2023-03-02T14:54:27;18.30;24.80
30520;DHT22;17300;50.374;8.006;2023-03-02T14:56:57;18.30;24.80
30520;DHT22;17300;50.374;8.006;2023-03-02T14:59:24;18.20;24.70
30520;DHT22;17300;50.374;8.006;2023-03-02T15:01:51;18.10;24.50
30520;DHT22;17300;50.374;8.006;2023-03-02T15:04:19;18.10;24.60
30520;DHT22;17300;50.374;8.006;2023-03-02T15:06:46;18.00;24.80
30520;DHT22;17300;50.374;8.006;2023-03-02T15:09:13;18.00;24.90
30520;DHT22;17300;50.374;8.006;2023-03-02T15:11:40;17.90;24.90
30520;DHT22;17300;50.374;8.006;2023-03-02T15:14:06;17.90;25.00
30520;DHT22;17300;50.374;8.006;2023-03-02T15:16:33;17.80;24.90
30520;DHT22;17300;50.374;8.006;2023-03-02T15:19:00;17.80;25.00
30520;DHT22;17300;50.374;8.006;2023-03-02T15:21:28;17.70;24.90
30520;DHT22;17300;50.374;8.006;2023-03-02T15:23:54;17.70;24.80
30520;DHT22;17300;50.374;8.006;2023-03-02T15:26:21;17.60;24.70
30520;DHT22;17300;50.374;8.006;2023-03-02T15:28:49;17.60;24.90
30520;DHT22;17300;50.374;8.006;2023-03-02T15:31:16;17.50;24.90
30520;DHT22;17300;50.374;8.006;2023-03-02T15:33:43;17.40;24.80
30520;DHT22;17300;50.374;8.006;2023-03-02T15:36:10;17.30;24.90
30520;DHT22;17300;50.374;8.006;2023-03-02T15:38:40;17.20;24.90
30520;DHT22;17300;50.374;8.006;2023-03-02T15:41:09;17.20;24.90
30520;DHT22;17300;50.374;8.006;2023-03-02T15:43:37;17.10;24.90
30520;DHT22;17300;50.374;8.006;2023-03-02T15:46:04;17.00;24.90
30520;DHT22;17300;50.374;8.006;2023-03-02T15:48:33;16.90;24.90
30520;DHT22;17300;50.374;8.006;2023-03-02T15:51:02;16.80;24.90
30520;DHT22;17300;50.374;8.006;2023-03-02T15:53:29;16.70;24.80
30520;DHT22;17300;50.374;8.006;2023-03-02T15:55:58;16.60;24.70